sensor_id;sensor_type;location;lat;lon;timestamp;P1;durP1;ratioP1;P2;durP2;ratioP2
24467;SDS011;12634;50.852;5.676;2023-05-07T00:01:43;5.63;;;4.07;;
24467;SDS011;12634;50.852;5.676;2023-05-07T00:04:11;6.53;;;4.30;;
24467;SDS011;12634;50.852;5.676;2023-05-07T00:06:38;11.38;;;4.35;;
24467;SDS011;12634;50.852;5.676;2023-05-07T00:09:06;6.75;;;4.28;;
24467;SDS011;12634;50.852;5.676;2023-05-07T00:11:33;6.13;;;3.55;;
24467;SDS011;12634;50.852;5.676;2023-05-07T00:14:00;8.15;;;4.35;;
24467;SDS011;12634;50.852;5.676;2023-05-07T00:16:28;5.28;;;4.10;;
24467;SDS011;12634;50.852;5.676;2023-05-07T00:18:55;6.70;;;4.55;;
24467;SDS011;12634;50.852;5.676;2023-05-07T00:21:23;6.15;;;3.65;;
24467;SDS011;12634;50.852;5.676;2023-05-07T00:23:52;5.07;;;3.60;;
24467;SDS011;12634;50.852;5.676;2023-05-07T00:26:19;6.05;;;4.60;;
24467;SDS011;12634;50.852;5.676;2023-05-07T00:28:46;10.38;;;4.22;;
24467;SDS011;12634;50.852;5.676;2023-05-07T00:31:13;5.72;;;4.18;;
24467;SDS011;12634;50.852;5.676;2023-05-07T00:33:40;6.15;;;3.92;;
24467;SDS011;12634;50.852;5.676;2023-05-07T00:36:08;7.00;;;4.47;;
24467;SDS011;12634;50.852;5.676;2023-05-07T00:38:36;6.57;;;4.43;;
24467;SDS011;12634;50.852;5.676;2023-05-07T00:41:03;6.85;;;4.32;;
24467;SDS011;12634;50.852;5.676;2023-05-07T00:43:30;6.68;;;4.80;;
24467;SDS011;12634;50.852;5.676;2023-05-07T00:45:58;6.53;;;4.68;;
24467;SDS011;12634;50.852;5.676;2023-05-07T00:48:25;6.95;;;4.35;;
24467;SDS011;12634;50.852;5.676;2023-05-07T00:50:53;7.22;;;4.50;;
24467;SDS011;12634;50.852;5.676;2023-05-07T00:53:20;6.25;;;4.40;;
24467;SDS011;12634;50.852;5.676;2023-05-07T00:55:49;7.18;;;5.00;;
24467;SDS011;12634;50.852;5.676;2023-05-07T00:58:16;8.60;;;4.93;;
24467;SDS011;12634;50.852;5.676;2023-05-07T01:00:43;7.90;;;4.60;;
24467;SDS011;12634;50.852;5.676;2023-05-07T01:03:10;7.05;;;4.65;;
24467;SDS011;12634;50.852;5.676;2023-05-07T01:05:37;9.10;;;4.57;;
24467;SDS011;12634;50.852;5.676;2023-05-07T01:08:05;10.80;;;5.10;;
24467;SDS011;12634;50.852;5.676;2023-05-07T01:10:32;8.93;;;5.15;;
24467;SDS011;12634;50.852;5.676;2023-05-07T01:13:01;6.88;;;4.63;;
24467;SDS011;12634;50.852;5.676;2023-05-07T01:15:29;7.05;;;4.95;;
24467;SDS011;12634;50.852;5.676;2023-05-07T01:17:56;7.90;;;5.10;;
24467;SDS011;12634;50.852;5.676;2023-05-07T01:20:23;7.75;;;5.05;;
24467;SDS011;12634;50.852;5.676;2023-05-07T01:22:52;6.82;;;4.68;;
24467;SDS011;12634;50.852;5.676;2023-05-07T01:25:21;6.75;;;4.78;;
24467;SDS011;12634;50.852;5.676;2023-05-07T01:27:48;7.50;;;5.05;;
24467;SDS011;12634;50.852;5.676;2023-05-07T01:30:15;6.10;;;4.93;;
24467;SDS011;12634;50.852;5.676;2023-05-07T01:32:46;6.13;;;4.88;;
24467;SDS011;12634;50.852;5.676;2023-05-07T01:35:18;7.35;;;4.93;;
24467;SDS011;12634;50.852;5.676;2023-05-07T01:37:47;5.88;;;4.72;;
24467;SDS011;12634;50.852;5.676;2023-05-07T01:40:16;6.75;;;4.85;;
24467;SDS011;12634;50.852;5.676;2023-05-07T01:42:44;6.63;;;5.05;;
24467;SDS011;12634;50.852;5.676;2023-05-07T01:45:13;7.85;;;5.50;;
24467;SDS011;12634;50.852;5.676;2023-05-07T01:47:40;6.68;;;4.63;;
24467;SDS011;12634;50.852;5.676;2023-05-07T01:50:08;5.70;;;4.70;;
24467;SDS011;12634;50.852;5.676;2023-05-07T01:52:36;10.18;;;4.78;;
24467;SDS011;12634;50.852;5.676;2023-05-07T01:55:05;6.75;;;4.40;;
24467;SDS011;12634;50.852;5.676;2023-05-07T01:57:35;5.32;;;3.88;;
24467;SDS011;12634;50.852;5.676;2023-05-07T02:00:03;6.18;;;4.30;;
24467;SDS011;12634;50.852;5.676;2023-05-07T02:02:31;6.75;;;4.45;;
24467;SDS011;12634;50.852;5.676;2023-05-07T02:04:59;5.50;;;4.15;;
24467;SDS011;12634;50.852;5.676;2023-05-07T02:07:26;7.80;;;4.22;;
24467;SDS011;12634;50.852;5.676;2023-05-07T02:09:54;7.60;;;4.07;;
24467;SDS011;12634;50.852;5.676;2023-05-07T02:12:21;5.40;;;3.78;;
24467;SDS011;12634;50.852;5.676;2023-05-07T02:14:50;5.57;;;4.18;;
24467;SDS011;12634;50.852;5.676;2023-05-07T02:17:17;4.95;;;3.65;;
24467;SDS011;12634;50.852;5.676;2023-05-07T02:19:45;5.03;;;3.90;;
24467;SDS011;12634;50.852;5.676;2023-05-07T02:22:12;5.57;;;4.13;;
24467;SDS011;12634;50.852;5.676;2023-05-07T02:24:39;8.80;;;4.28;;
24467;SDS011;12634;50.852;5.676;2023-05-07T02:27:06;6.32;;;4.28;;
24467;SDS011;12634;50.852;5.676;2023-05-07T02:29:33;6.28;;;4.45;;
24467;SDS011;12634;50.852;5.676;2023-05-07T02:32:02;7.22;;;4.35;;
24467;SDS011;12634;50.852;5.676;2023-05-07T02:34:29;6.38;;;3.95;;
24467;SDS011;12634;50.852;5.676;2023-05-07T02:36:56;6.60;;;3.75;;
24467;SDS011;12634;50.852;5.676;2023-05-07T02:39:23;7.20;;;4.43;;
24467;SDS011;12634;50.852;5.676;2023-05-07T02:41:50;5.43;;;4.07;;
24467;SDS011;12634;50.852;5.676;2023-05-07T02:44:17;5.57;;;4.15;;
24467;SDS011;12634;50.852;5.676;2023-05-07T02:46:45;6.45;;;4.45;;
24467;SDS011;12634;50.852;5.676;2023-05-07T02:49:13;5.28;;;3.97;;
24467;SDS011;12634;50.852;5.676;2023-05-07T02:51:40;5.03;;;4.18;;
24467;SDS011;12634;50.852;5.676;2023-05-07T02:54:07;7.43;;;4.50;;
24467;SDS011;12634;50.852;5.676;2023-05-07T02:56:34;5.60;;;4.18;;
24467;SDS011;12634;50.852;5.676;2023-05-07T02:59:01;6.35;;;4.55;;
24467;SDS011;12634;50.852;5.676;2023-05-07T03:01:28;7.28;;;4.15;;
24467;SDS011;12634;50.852;5.676;2023-05-07T03:03:55;6.63;;;4.55;;
24467;SDS011;12634;50.852;5.676;2023-05-07T03:06:24;6.57;;;4.13;;
24467;SDS011;12634;50.852;5.676;2023-05-07T03:08:51;4.90;;;4.35;;
24467;SDS011;12634;50.852;5.676;2023-05-07T03:11:18;5.85;;;4.22;;
24467;SDS011;12634;50.852;5.676;2023-05-07T03:13:46;5.97;;;4.38;;
24467;SDS011;12634;50.852;5.676;2023-05-07T03:16:15;6.10;;;4.78;;
24467;SDS011;12634;50.852;5.676;2023-05-07T03:18:42;5.40;;;4.53;;
24467;SDS011;12634;50.852;5.676;2023-05-07T03:21:09;5.32;;;4.78;;
24467;SDS011;12634;50.852;5.676;2023-05-07T03:23:38;7.93;;;4.97;;
24467;SDS011;12634;50.852;5.676;2023-05-07T03:26:05;6.72;;;5.00;;
24467;SDS011;12634;50.852;5.676;2023-05-07T03:28:32;7.20;;;4.60;;
24467;SDS011;12634;50.852;5.676;2023-05-07T03:31:00;7.55;;;5.00;;
24467;SDS011;12634;50.852;5.676;2023-05-07T03:33:27;6.38;;;5.00;;
24467;SDS011;12634;50.852;5.676;2023-05-07T03:35:54;6.78;;;5.03;;
24467;SDS011;12634;50.852;5.676;2023-05-07T03:38:21;7.28;;;5.28;;
24467;SDS011;12634;50.852;5.676;2023-05-07T03:40:50;8.65;;;5.03;;
24467;SDS011;12634;50.852;5.676;2023-05-07T03:43:17;6.95;;;5.22;;
24467;SDS011;12634;50.852;5.676;2023-05-07T03:45:44;7.13;;;4.65;;
24467;SDS011;12634;50.852;5.676;2023-05-07T03:48:11;7.30;;;4.72;;
24467;SDS011;12634;50.852;5.676;2023-05-07T03:50:38;6.75;;;4.55;;
24467;SDS011;12634;50.852;5.676;2023-05-07T03:53:06;7.15;;;5.07;;
24467;SDS011;12634;50.852;5.676;2023-05-07T03:55:33;6.10;;;4.25;;
24467;SDS011;12634;50.852;5.676;2023-05-07T03:58:02;7.75;;;4.80;;
24467;SDS011;12634;50.852;5.676;2023-05-07T04:00:29;5.82;;;4.47;;
24467;SDS011;12634;50.852;5.676;2023-05-07T04:02:58;6.80;;;4.93;;
24467;SDS011;12634;50.852;5.676;2023-05-07T04:05:25;6.20;;;4.15;;
24467;SDS011;12634;50.852;5.676;2023-05-07T04:07:53;5.53;;;4.22;;
24467;SDS011;12634;50.852;5.676;2023-05-07T04:10:20;5.93;;;4.22;;
24467;SDS011;12634;50.852;5.676;2023-05-07T04:12:48;5.28;;;4.15;;
24467;SDS011;12634;50.852;5.676;2023-05-07T04:15:16;6.55;;;4.25;;
24467;SDS011;12634;50.852;5.676;2023-05-07T04:17:44;6.20;;;4.30;;
24467;SDS011;12634;50.852;5.676;2023-05-07T04:20:13;7.50;;;5.03;;
24467;SDS011;12634;50.852;5.676;2023-05-07T04:22:42;5.50;;;4.13;;
24467;SDS011;12634;50.852;5.676;2023-05-07T04:25:10;6.85;;;4.43;;
24467;SDS011;12634;50.852;5.676;2023-05-07T04:27:37;5.80;;;4.30;;
24467;SDS011;12634;50.852;5.676;2023-05-07T04:30:04;5.97;;;4.45;;
24467;SDS011;12634;50.852;5.676;2023-05-07T04:32:34;5.97;;;4.60;;
24467;SDS011;12634;50.852;5.676;2023-05-07T04:35:01;5.10;;;4.13;;
24467;SDS011;12634;50.852;5.676;2023-05-07T04:37:28;5.60;;;4.20;;
24467;SDS011;12634;50.852;5.676;2023-05-07T04:39:57;7.60;;;4.15;;
24467;SDS011;12634;50.852;5.676;2023-05-07T04:42:25;7.03;;;4.35;;
24467;SDS011;12634;50.852;5.676;2023-05-07T04:44:52;6.88;;;4.22;;
24467;SDS011;12634;50.852;5.676;2023-05-07T04:47:20;5.45;;;3.88;;
24467;SDS011;12634;50.852;5.676;2023-05-07T04:49:48;6.18;;;3.97;;
24467;SDS011;12634;50.852;5.676;2023-05-07T04:52:15;7.28;;;4.20;;
24467;SDS011;12634;50.852;5.676;2023-05-07T04:54:43;7.57;;;4.22;;
24467;SDS011;12634;50.852;5.676;2023-05-07T04:57:10;6.30;;;4.18;;
24467;SDS011;12634;50.852;5.676;2023-05-07T04:59:37;9.95;;;4.05;;
24467;SDS011;12634;50.852;5.676;2023-05-07T05:02:04;7.15;;;3.95;;
24467;SDS011;12634;50.852;5.676;2023-05-07T05:04:31;5.97;;;3.85;;
24467;SDS011;12634;50.852;5.676;2023-05-07T05:06:59;5.10;;;3.65;;
24467;SDS011;12634;50.852;5.676;2023-05-07T05:09:28;6.40;;;4.13;;
24467;SDS011;12634;50.852;5.676;2023-05-07T05:11:55;6.88;;;4.00;;
24467;SDS011;12634;50.852;5.676;2023-05-07T05:14:23;4.57;;;3.30;;
24467;SDS011;12634;50.852;5.676;2023-05-07T05:16:50;9.23;;;3.90;;
24467;SDS011;12634;50.852;5.676;2023-05-07T05:19:17;5.57;;;3.55;;
24467;SDS011;12634;50.852;5.676;2023-05-07T05:21:44;7.18;;;3.17;;
24467;SDS011;12634;50.852;5.676;2023-05-07T05:24:12;4.93;;;3.58;;
24467;SDS011;12634;50.852;5.676;2023-05-07T05:26:40;6.13;;;3.78;;
24467;SDS011;12634;50.852;5.676;2023-05-07T05:29:07;4.82;;;3.80;;
24467;SDS011;12634;50.852;5.676;2023-05-07T05:31:34;6.25;;;3.65;;
24467;SDS011;12634;50.852;5.676;2023-05-07T05:34:02;4.72;;;3.47;;
24467;SDS011;12634;50.852;5.676;2023-05-07T05:36:29;4.85;;;3.28;;
24467;SDS011;12634;50.852;5.676;2023-05-07T05:38:57;5.82;;;3.50;;
24467;SDS011;12634;50.852;5.676;2023-05-07T05:41:25;5.45;;;3.42;;
24467;SDS011;12634;50.852;5.676;2023-05-07T05:43:52;4.88;;;3.40;;
24467;SDS011;12634;50.852;5.676;2023-05-07T05:46:19;8.52;;;3.88;;
24467;SDS011;12634;50.852;5.676;2023-05-07T05:48:46;5.43;;;3.63;;
24467;SDS011;12634;50.852;5.676;2023-05-07T05:51:13;4.20;;;3.58;;
24467;SDS011;12634;50.852;5.676;2023-05-07T05:53:41;5.10;;;3.85;;
24467;SDS011;12634;50.852;5.676;2023-05-07T05:56:08;6.47;;;3.88;;
24467;SDS011;12634;50.852;5.676;2023-05-07T05:58:36;5.60;;;3.75;;
24467;SDS011;12634;50.852;5.676;2023-05-07T06:01:03;6.03;;;3.65;;
24467;SDS011;12634;50.852;5.676;2023-05-07T06:03:31;5.55;;;4.00;;
24467;SDS011;12634;50.852;5.676;2023-05-07T06:05:58;7.13;;;3.65;;
24467;SDS011;12634;50.852;5.676;2023-05-07T06:08:28;6.88;;;3.83;;
24467;SDS011;12634;50.852;5.676;2023-05-07T06:10:56;7.32;;;3.63;;
24467;SDS011;12634;50.852;5.676;2023-05-07T06:13:24;4.97;;;3.80;;
24467;SDS011;12634;50.852;5.676;2023-05-07T06:15:52;5.10;;;3.67;;
24467;SDS011;12634;50.852;5.676;2023-05-07T06:18:19;7.28;;;4.00;;
24467;SDS011;12634;50.852;5.676;2023-05-07T06:20:46;5.03;;;3.55;;
24467;SDS011;12634;50.852;5.676;2023-05-07T06:23:14;4.22;;;3.17;;
24467;SDS011;12634;50.852;5.676;2023-05-07T06:25:41;4.82;;;3.88;;
24467;SDS011;12634;50.852;5.676;2023-05-07T06:28:08;5.90;;;3.78;;
24467;SDS011;12634;50.852;5.676;2023-05-07T06:30:36;5.82;;;4.10;;
24467;SDS011;12634;50.852;5.676;2023-05-07T06:33:04;5.80;;;4.07;;
24467;SDS011;12634;50.852;5.676;2023-05-07T06:35:32;5.38;;;3.97;;
24467;SDS011;12634;50.852;5.676;2023-05-07T06:37:59;4.50;;;3.67;;
24467;SDS011;12634;50.852;5.676;2023-05-07T06:40:26;5.68;;;3.88;;
24467;SDS011;12634;50.852;5.676;2023-05-07T06:42:53;6.18;;;3.65;;
24467;SDS011;12634;50.852;5.676;2023-05-07T06:45:21;5.32;;;3.53;;
24467;SDS011;12634;50.852;5.676;2023-05-07T06:47:48;5.72;;;4.15;;
24467;SDS011;12634;50.852;5.676;2023-05-07T06:50:17;5.25;;;3.72;;
24467;SDS011;12634;50.852;5.676;2023-05-07T06:52:44;4.95;;;3.50;;
24467;SDS011;12634;50.852;5.676;2023-05-07T06:55:11;6.22;;;3.95;;
24467;SDS011;12634;50.852;5.676;2023-05-07T06:57:39;7.47;;;3.38;;
24467;SDS011;12634;50.852;5.676;2023-05-07T07:00:06;6.45;;;3.38;;
24467;SDS011;12634;50.852;5.676;2023-05-07T07:02:35;5.20;;;3.20;;
24467;SDS011;12634;50.852;5.676;2023-05-07T07:05:03;5.80;;;2.70;;
24467;SDS011;12634;50.852;5.676;2023-05-07T07:07:32;4.45;;;3.08;;
24467;SDS011;12634;50.852;5.676;2023-05-07T07:09:59;4.15;;;2.88;;
24467;SDS011;12634;50.852;5.676;2023-05-07T07:12:26;5.95;;;3.58;;
24467;SDS011;12634;50.852;5.676;2023-05-07T07:14:54;6.13;;;3.60;;
24467;SDS011;12634;50.852;5.676;2023-05-07T07:17:21;6.35;;;3.42;;
24467;SDS011;12634;50.852;5.676;2023-05-07T07:19:48;4.93;;;2.95;;
24467;SDS011;12634;50.852;5.676;2023-05-07T07:22:15;7.03;;;3.00;;
24467;SDS011;12634;50.852;5.676;2023-05-07T07:24:44;6.70;;;2.95;;
24467;SDS011;12634;50.852;5.676;2023-05-07T07:27:12;4.75;;;2.58;;
24467;SDS011;12634;50.852;5.676;2023-05-07T07:29:39;5.35;;;2.83;;
24467;SDS011;12634;50.852;5.676;2023-05-07T07:32:06;5.40;;;3.03;;
24467;SDS011;12634;50.852;5.676;2023-05-07T07:34:34;4.15;;;2.63;;
24467;SDS011;12634;50.852;5.676;2023-05-07T07:37:01;4.78;;;2.25;;
24467;SDS011;12634;50.852;5.676;2023-05-07T07:39:31;4.32;;;2.60;;
24467;SDS011;12634;50.852;5.676;2023-05-07T07:41:59;5.65;;;2.53;;
24467;SDS011;12634;50.852;5.676;2023-05-07T07:44:27;4.72;;;2.53;;
24467;SDS011;12634;50.852;5.676;2023-05-07T07:46:55;6.57;;;2.55;;
24467;SDS011;12634;50.852;5.676;2023-05-07T07:49:22;4.95;;;2.53;;
24467;SDS011;12634;50.852;5.676;2023-05-07T07:51:49;6.70;;;2.78;;
24467;SDS011;12634;50.852;5.676;2023-05-07T07:54:16;7.53;;;2.85;;
24467;SDS011;12634;50.852;5.676;2023-05-07T07:56:43;4.53;;;2.25;;
24467;SDS011;12634;50.852;5.676;2023-05-07T07:59:11;3.85;;;2.10;;
24467;SDS011;12634;50.852;5.676;2023-05-07T08:01:42;3.22;;;2.15;;
24467;SDS011;12634;50.852;5.676;2023-05-07T08:04:09;4.15;;;2.42;;
24467;SDS011;12634;50.852;5.676;2023-05-07T08:06:36;6.85;;;2.88;;
24467;SDS011;12634;50.852;5.676;2023-05-07T08:09:04;4.05;;;2.17;;
24467;SDS011;12634;50.852;5.676;2023-05-07T08:11:31;5.15;;;2.55;;
24467;SDS011;12634;50.852;5.676;2023-05-07T08:13:58;2.80;;;1.98;;
24467;SDS011;12634;50.852;5.676;2023-05-07T08:16:26;3.33;;;2.15;;
24467;SDS011;12634;50.852;5.676;2023-05-07T08:18:53;4.65;;;2.20;;
24467;SDS011;12634;50.852;5.676;2023-05-07T08:21:20;5.43;;;2.35;;
24467;SDS011;12634;50.852;5.676;2023-05-07T08:23:48;3.80;;;1.85;;
24467;SDS011;12634;50.852;5.676;2023-05-07T08:26:15;3.60;;;2.13;;
24467;SDS011;12634;50.852;5.676;2023-05-07T08:28:42;8.05;;;2.10;;
24467;SDS011;12634;50.852;5.676;2023-05-07T08:31:09;5.38;;;2.00;;
24467;SDS011;12634;50.852;5.676;2023-05-07T08:33:38;4.90;;;1.92;;
24467;SDS011;12634;50.852;5.676;2023-05-07T08:36:05;3.88;;;1.83;;
24467;SDS011;12634;50.852;5.676;2023-05-07T08:38:32;4.38;;;1.90;;
24467;SDS011;12634;50.852;5.676;2023-05-07T08:40:59;6.80;;;2.00;;
24467;SDS011;12634;50.852;5.676;2023-05-07T08:43:26;4.05;;;1.88;;
24467;SDS011;12634;50.852;5.676;2023-05-07T08:45:54;4.75;;;2.22;;
24467;SDS011;12634;50.852;5.676;2023-05-07T08:48:25;3.45;;;1.80;;
24467;SDS011;12634;50.852;5.676;2023-05-07T08:50:54;3.78;;;1.95;;
24467;SDS011;12634;50.852;5.676;2023-05-07T08:53:22;4.28;;;2.15;;
24467;SDS011;12634;50.852;5.676;2023-05-07T08:55:49;4.35;;;1.98;;
24467;SDS011;12634;50.852;5.676;2023-05-07T08:58:16;5.38;;;2.10;;
24467;SDS011;12634;50.852;5.676;2023-05-07T09:00:43;3.35;;;1.95;;
24467;SDS011;12634;50.852;5.676;2023-05-07T09:03:10;5.35;;;1.73;;
24467;SDS011;12634;50.852;5.676;2023-05-07T09:05:39;4.05;;;1.40;;
24467;SDS011;12634;50.852;5.676;2023-05-07T09:08:07;4.30;;;1.88;;
24467;SDS011;12634;50.852;5.676;2023-05-07T09:10:35;2.33;;;1.50;;
24467;SDS011;12634;50.852;5.676;2023-05-07T09:13:02;2.78;;;1.40;;
24467;SDS011;12634;50.852;5.676;2023-05-07T09:15:30;6.28;;;1.95;;
24467;SDS011;12634;50.852;5.676;2023-05-07T09:17:59;7.00;;;2.10;;
24467;SDS011;12634;50.852;5.676;2023-05-07T09:20:28;3.90;;;1.65;;
24467;SDS011;12634;50.852;5.676;2023-05-07T09:22:56;4.07;;;1.73;;
24467;SDS011;12634;50.852;5.676;2023-05-07T09:25:31;2.92;;;1.90;;
24467;SDS011;12634;50.852;5.676;2023-05-07T09:28:00;3.15;;;1.58;;
24467;SDS011;12634;50.852;5.676;2023-05-07T09:30:28;6.93;;;1.77;;
24467;SDS011;12634;50.852;5.676;2023-05-07T09:32:56;5.85;;;1.85;;
24467;SDS011;12634;50.852;5.676;2023-05-07T09:35:25;4.47;;;1.27;;
24467;SDS011;12634;50.852;5.676;2023-05-07T09:37:53;3.88;;;1.67;;
24467;SDS011;12634;50.852;5.676;2023-05-07T09:40:21;5.82;;;1.70;;
24467;SDS011;12634;50.852;5.676;2023-05-07T09:42:50;4.15;;;1.80;;
24467;SDS011;12634;50.852;5.676;2023-05-07T09:45:21;4.20;;;1.80;;
24467;SDS011;12634;50.852;5.676;2023-05-07T09:47:49;6.15;;;1.80;;
24467;SDS011;12634;50.852;5.676;2023-05-07T09:50:21;4.00;;;1.80;;
24467;SDS011;12634;50.852;5.676;2023-05-07T09:52:53;3.72;;;1.50;;
24467;SDS011;12634;50.852;5.676;2023-05-07T09:55:21;4.90;;;1.52;;
24467;SDS011;12634;50.852;5.676;2023-05-07T09:57:51;18.65;;;2.90;;
24467;SDS011;12634;50.852;5.676;2023-05-07T10:00:19;7.00;;;2.30;;
24467;SDS011;12634;50.852;5.676;2023-05-07T10:02:47;7.45;;;1.90;;
24467;SDS011;12634;50.852;5.676;2023-05-07T10:05:17;7.38;;;1.85;;
24467;SDS011;12634;50.852;5.676;2023-05-07T10:07:45;6.03;;;1.45;;
24467;SDS011;12634;50.852;5.676;2023-05-07T10:10:13;3.58;;;1.95;;
24467;SDS011;12634;50.852;5.676;2023-05-07T10:12:41;4.53;;;1.45;;
24467;SDS011;12634;50.852;5.676;2023-05-07T10:15:10;6.45;;;2.00;;
24467;SDS011;12634;50.852;5.676;2023-05-07T10:17:39;6.82;;;2.55;;
24467;SDS011;12634;50.852;5.676;2023-05-07T10:20:07;4.72;;;2.90;;
24467;SDS011;12634;50.852;5.676;2023-05-07T10:22:37;3.22;;;2.20;;
24467;SDS011;12634;50.852;5.676;2023-05-07T10:25:06;6.90;;;3.17;;
24467;SDS011;12634;50.852;5.676;2023-05-07T10:27:40;6.38;;;2.78;;
24467;SDS011;12634;50.852;5.676;2023-05-07T10:30:12;5.90;;;2.90;;
24467;SDS011;12634;50.852;5.676;2023-05-07T10:32:51;3.92;;;2.25;;
24467;SDS011;12634;50.852;5.676;2023-05-07T10:35:22;4.55;;;2.15;;
24467;SDS011;12634;50.852;5.676;2023-05-07T10:37:52;5.57;;;2.63;;
24467;SDS011;12634;50.852;5.676;2023-05-07T10:40:20;6.18;;;2.90;;
24467;SDS011;12634;50.852;5.676;2023-05-07T10:42:54;5.53;;;2.92;;
24467;SDS011;12634;50.852;5.676;2023-05-07T10:45:24;6.03;;;3.22;;
24467;SDS011;12634;50.852;5.676;2023-05-07T10:48:08;6.38;;;3.45;;
24467;SDS011;12634;50.852;5.676;2023-05-07T10:53:20;9.65;;;3.53;;
24467;SDS011;12634;50.852;5.676;2023-05-07T10:58:50;7.72;;;3.88;;
24467;SDS011;12634;50.852;5.676;2023-05-07T11:01:21;6.10;;;3.60;;
24467;SDS011;12634;50.852;5.676;2023-05-07T11:04:19;8.70;;;3.65;;
24467;SDS011;12634;50.852;5.676;2023-05-07T11:09:56;5.82;;;3.65;;
24467;SDS011;12634;50.852;5.676;2023-05-07T11:12:50;8.75;;;3.72;;
24467;SDS011;12634;50.852;5.676;2023-05-07T11:15:34;6.35;;;3.28;;
24467;SDS011;12634;50.852;5.676;2023-05-07T11:18:04;9.23;;;3.70;;
24467;SDS011;12634;50.852;5.676;2023-05-07T11:20:48;7.43;;;3.40;;
24467;SDS011;12634;50.852;5.676;2023-05-07T11:26:25;7.45;;;3.22;;
24467;SDS011;12634;50.852;5.676;2023-05-07T11:28:53;8.85;;;2.80;;
24467;SDS011;12634;50.852;5.676;2023-05-07T11:31:22;7.75;;;2.90;;
24467;SDS011;12634;50.852;5.676;2023-05-07T11:33:52;8.55;;;3.08;;
24467;SDS011;12634;50.852;5.676;2023-05-07T11:36:21;7.68;;;2.60;;
24467;SDS011;12634;50.852;5.676;2023-05-07T11:38:49;6.25;;;2.88;;
24467;SDS011;12634;50.852;5.676;2023-05-07T11:41:16;6.45;;;2.70;;
24467;SDS011;12634;50.852;5.676;2023-05-07T11:43:55;9.32;;;2.80;;
24467;SDS011;12634;50.852;5.676;2023-05-07T11:46:23;7.60;;;3.03;;
24467;SDS011;12634;50.852;5.676;2023-05-07T11:48:53;5.68;;;2.53;;
24467;SDS011;12634;50.852;5.676;2023-05-07T11:51:21;8.27;;;2.85;;
24467;SDS011;12634;50.852;5.676;2023-05-07T11:53:49;6.90;;;2.70;;
24467;SDS011;12634;50.852;5.676;2023-05-07T11:56:17;6.22;;;2.65;;
24467;SDS011;12634;50.852;5.676;2023-05-07T11:58:45;6.97;;;2.67;;
24467;SDS011;12634;50.852;5.676;2023-05-07T12:01:13;7.50;;;3.00;;
24467;SDS011;12634;50.852;5.676;2023-05-07T12:03:42;6.63;;;2.38;;
24467;SDS011;12634;50.852;5.676;2023-05-07T12:06:12;5.90;;;2.70;;
24467;SDS011;12634;50.852;5.676;2023-05-07T12:08:41;7.90;;;2.80;;
24467;SDS011;12634;50.852;5.676;2023-05-07T12:11:10;6.68;;;2.70;;
24467;SDS011;12634;50.852;5.676;2023-05-07T12:13:40;5.95;;;2.67;;
24467;SDS011;12634;50.852;5.676;2023-05-07T12:16:08;7.80;;;2.75;;
24467;SDS011;12634;50.852;5.676;2023-05-07T12:18:35;8.45;;;3.15;;
24467;SDS011;12634;50.852;5.676;2023-05-07T12:21:04;7.85;;;3.35;;
24467;SDS011;12634;50.852;5.676;2023-05-07T12:23:33;7.30;;;3.47;;
24467;SDS011;12634;50.852;5.676;2023-05-07T12:26:02;7.32;;;3.45;;
24467;SDS011;12634;50.852;5.676;2023-05-07T12:28:29;12.25;;;3.20;;
24467;SDS011;12634;50.852;5.676;2023-05-07T12:30:57;8.80;;;3.13;;
24467;SDS011;12634;50.852;5.676;2023-05-07T12:33:25;6.28;;;2.78;;
24467;SDS011;12634;50.852;5.676;2023-05-07T12:35:54;7.47;;;2.85;;
24467;SDS011;12634;50.852;5.676;2023-05-07T12:38:21;6.15;;;2.13;;
24467;SDS011;12634;50.852;5.676;2023-05-07T12:40:53;5.60;;;2.13;;
24467;SDS011;12634;50.852;5.676;2023-05-07T12:43:21;3.72;;;1.73;;
24467;SDS011;12634;50.852;5.676;2023-05-07T12:45:51;9.02;;;2.10;;
24467;SDS011;12634;50.852;5.676;2023-05-07T12:48:20;4.95;;;1.30;;
24467;SDS011;12634;50.852;5.676;2023-05-07T12:50:49;5.78;;;2.20;;
24467;SDS011;12634;50.852;5.676;2023-05-07T12:53:16;6.38;;;2.10;;
24467;SDS011;12634;50.852;5.676;2023-05-07T12:55:46;9.15;;;2.45;;
24467;SDS011;12634;50.852;5.676;2023-05-07T12:58:17;4.47;;;1.90;;
24467;SDS011;12634;50.852;5.676;2023-05-07T13:00:47;6.13;;;2.38;;
24467;SDS011;12634;50.852;5.676;2023-05-07T13:03:20;6.78;;;2.30;;
24467;SDS011;12634;50.852;5.676;2023-05-07T13:05:49;5.78;;;2.40;;
24467;SDS011;12634;50.852;5.676;2023-05-07T13:08:30;5.82;;;2.42;;
24467;SDS011;12634;50.852;5.676;2023-05-07T13:10:58;7.80;;;2.55;;
24467;SDS011;12634;50.852;5.676;2023-05-07T13:13:30;6.38;;;2.40;;
24467;SDS011;12634;50.852;5.676;2023-05-07T13:15:57;4.57;;;2.08;;
24467;SDS011;12634;50.852;5.676;2023-05-07T13:18:25;6.22;;;1.90;;
24467;SDS011;12634;50.852;5.676;2023-05-07T13:20:52;7.60;;;2.35;;
24467;SDS011;12634;50.852;5.676;2023-05-07T13:23:20;5.85;;;2.10;;
24467;SDS011;12634;50.852;5.676;2023-05-07T13:25:47;6.07;;;2.25;;
24467;SDS011;12634;50.852;5.676;2023-05-07T13:28:15;9.38;;;2.53;;
24467;SDS011;12634;50.852;5.676;2023-05-07T13:30:44;6.18;;;1.77;;
24467;SDS011;12634;50.852;5.676;2023-05-07T13:33:11;4.65;;;1.75;;
24467;SDS011;12634;50.852;5.676;2023-05-07T13:35:38;6.60;;;1.30;;
24467;SDS011;12634;50.852;5.676;2023-05-07T13:38:06;6.95;;;1.63;;
24467;SDS011;12634;50.852;5.676;2023-05-07T13:40:33;8.68;;;1.95;;
24467;SDS011;12634;50.852;5.676;2023-05-07T13:43:00;8.23;;;1.55;;
24467;SDS011;12634;50.852;5.676;2023-05-07T13:45:28;8.40;;;1.55;;
24467;SDS011;12634;50.852;5.676;2023-05-07T13:47:57;7.55;;;1.80;;
24467;SDS011;12634;50.852;5.676;2023-05-07T13:50:24;7.10;;;2.10;;
24467;SDS011;12634;50.852;5.676;2023-05-07T13:52:55;5.93;;;2.28;;
24467;SDS011;12634;50.852;5.676;2023-05-07T13:55:23;7.10;;;2.80;;
24467;SDS011;12634;50.852;5.676;2023-05-07T13:57:54;6.65;;;2.20;;
24467;SDS011;12634;50.852;5.676;2023-05-07T14:00:22;21.88;;;3.70;;
24467;SDS011;12634;50.852;5.676;2023-05-07T14:02:50;9.30;;;3.47;;
24467;SDS011;12634;50.852;5.676;2023-05-07T14:05:18;13.68;;;3.22;;
24467;SDS011;12634;50.852;5.676;2023-05-07T14:07:46;7.55;;;2.78;;
24467;SDS011;12634;50.852;5.676;2023-05-07T14:10:14;6.25;;;2.67;;
24467;SDS011;12634;50.852;5.676;2023-05-07T14:12:41;7.55;;;3.35;;
24467;SDS011;12634;50.852;5.676;2023-05-07T14:15:08;7.50;;;2.63;;
24467;SDS011;12634;50.852;5.676;2023-05-07T14:17:36;7.72;;;2.58;;
24467;SDS011;12634;50.852;5.676;2023-05-07T14:20:03;6.97;;;2.80;;
24467;SDS011;12634;50.852;5.676;2023-05-07T14:22:33;7.50;;;3.42;;
24467;SDS011;12634;50.852;5.676;2023-05-07T14:25:00;9.13;;;3.42;;
24467;SDS011;12634;50.852;5.676;2023-05-07T14:27:27;21.67;;;4.38;;
24467;SDS011;12634;50.852;5.676;2023-05-07T14:29:55;11.73;;;4.03;;
24467;SDS011;12634;50.852;5.676;2023-05-07T14:32:22;10.63;;;4.57;;
24467;SDS011;12634;50.852;5.676;2023-05-07T14:34:49;9.20;;;4.18;;
24467;SDS011;12634;50.852;5.676;2023-05-07T14:37:16;10.43;;;3.85;;
24467;SDS011;12634;50.852;5.676;2023-05-07T14:39:46;8.68;;;3.20;;
24467;SDS011;12634;50.852;5.676;2023-05-07T14:42:13;9.45;;;3.05;;
24467;SDS011;12634;50.852;5.676;2023-05-07T14:44:40;6.68;;;3.15;;
24467;SDS011;12634;50.852;5.676;2023-05-07T14:47:08;6.30;;;2.58;;
24467;SDS011;12634;50.852;5.676;2023-05-07T14:49:35;8.23;;;3.25;;
24467;SDS011;12634;50.852;5.676;2023-05-07T14:52:02;6.55;;;2.25;;
24467;SDS011;12634;50.852;5.676;2023-05-07T14:54:33;10.45;;;2.67;;
24467;SDS011;12634;50.852;5.676;2023-05-07T14:57:02;7.85;;;2.50;;
24467;SDS011;12634;50.852;5.676;2023-05-07T14:59:29;8.18;;;2.78;;
24467;SDS011;12634;50.852;5.676;2023-05-07T15:01:56;8.48;;;2.60;;
24467;SDS011;12634;50.852;5.676;2023-05-07T15:04:24;7.30;;;2.30;;
24467;SDS011;12634;50.852;5.676;2023-05-07T15:06:51;6.60;;;2.00;;